sensor_id;sensor_type;location;lat;lon;timestamp;pressure;altitude;pressure_sealevel;temperature;humidity
59513;BME280;45330;51.634;5.562;2022-11-27T00:02:13;102481.63;;;4.25;100.00
59513;BME280;45330;51.634;5.562;2022-11-27T00:04:38;102479.13;;;4.26;100.00
59513;BME280;45330;51.634;5.562;2022-11-27T00:07:04;102479.13;;;4.26;100.00
59513;BME280;45330;51.634;5.562;2022-11-27T00:09:29;102477.47;;;4.28;100.00
59513;BME280;45330;51.634;5.562;2022-11-27T00:11:54;102449.25;;;4.12;100.00
59513;BME280;45330;51.634;5.562;2022-11-27T00:14:22;102446.53;;;4.09;100.00
59513;BME280;45330;51.634;5.562;2022-11-27T00:16:48;102443.69;;;4.03;100.00
59513;BME280;45330;51.634;5.562;2022-11-27T00:19:13;102457.88;;;4.12;100.00
59513;BME280;45330;51.634;5.562;2022-11-27T00:21:38;102453.25;;;4.05;100.00
59513;BME280;45330;51.634;5.562;2022-11-27T00:24:05;102437.94;;;3.90;100.00
59513;BME280;45330;51.634;5.562;2022-11-27T00:26:32;102430.00;;;3.86;100.00
59513;BME280;45330;51.634;5.562;2022-11-27T00:28:57;102443.22;;;3.93;100.00
59513;BME280;45330;51.634;5.562;2022-11-27T00:31:27;102442.81;;;3.84;100.00
59513;BME280;45330;51.634;5.562;2022-11-27T00:33:58;102442.66;;;3.81;100.00
59513;BME280;45330;51.634;5.562;2022-11-27T00:36:25;102449.63;;;3.84;100.00
59513;BME280;45330;51.634;5.562;2022-11-27T00:38:50;102441.72;;;3.79;100.00
59513;BME280;45330;51.634;5.562;2022-11-27T00:41:20;102432.72;;;3.71;100.00
59513;BME280;45330;51.634;5.562;2022-11-27T00:43:46;102424.13;;;3.70;100.00
59513;BME280;45330;51.634;5.562;2022-11-27T00:46:13;102425.66;;;3.67;100.00
59513;BME280;45330;51.634;5.562;2022-11-27T00:48:39;102424.59;;;3.62;100.00
59513;BME280;45330;51.634;5.562;2022-11-27T00:51:07;102433.09;;;3.60;100.00
59513;BME280;45330;51.634;5.562;2022-11-27T00:53:33;102434.88;;;3.62;100.00
59513;BME280;45330;51.634;5.562;2022-11-27T00:55:59;102439.84;;;3.58;100.00
59513;BME280;45330;51.634;5.562;2022-11-27T00:58:25;102428.56;;;3.55;100.00
59513;BME280;45330;51.634;5.562;2022-11-27T01:00:58;102428.56;;;3.55;100.00
59513;BME280;45330;51.634;5.562;2022-11-27T01:03:25;102425.59;;;3.47;100.00
59513;BME280;45330;51.634;5.562;2022-11-27T01:05:51;102404.56;;;3.38;100.00
59513;BME280;45330;51.634;5.562;2022-11-27T01:08:17;102401.59;;;3.30;100.00
59513;BME280;45330;51.634;5.562;2022-11-27T01:10:54;102360.72;;;3.00;100.00
59513;BME280;45330;51.634;5.562;2022-11-27T01:13:22;102407.88;;;3.35;100.00
59513;BME280;45330;51.634;5.562;2022-11-27T01:16:00;102403.59;;;3.36;100.00
59513;BME280;45330;51.634;5.562;2022-11-27T01:18:26;102372.94;;;3.22;100.00
59513;BME280;45330;51.634;5.562;2022-11-27T01:20:52;102369.25;;;3.17;100.00
59513;BME280;45330;51.634;5.562;2022-11-27T01:23:18;102388.69;;;3.29;100.00
59513;BME280;45330;51.634;5.562;2022-11-27T01:25:43;102332.38;;;2.99;100.00
59513;BME280;45330;51.634;5.562;2022-11-27T01:28:08;102387.16;;;3.32;100.00
59513;BME280;45330;51.634;5.562;2022-11-27T01:30:36;102370.13;;;3.18;100.00
59513;BME280;45330;51.634;5.562;2022-11-27T01:33:02;102371.47;;;3.28;100.00
59513;BME280;45330;51.634;5.562;2022-11-27T01:35:27;102390.88;;;3.39;100.00
59513;BME280;45330;51.634;5.562;2022-11-27T01:37:52;102369.72;;;3.26;100.00
59513;BME280;45330;51.634;5.562;2022-11-27T01:40:18;102382.75;;;3.48;100.00
59513;BME280;45330;51.634;5.562;2022-11-27T01:42:43;102367.06;;;3.43;100.00
59513;BME280;45330;51.634;5.562;2022-11-27T01:45:10;102355.69;;;3.38;100.00
59513;BME280;45330;51.634;5.562;2022-11-27T01:47:47;102367.84;;;3.60;100.00
59513;BME280;45330;51.634;5.562;2022-11-27T01:50:20;102374.50;;;3.55;100.00
59513;BME280;45330;51.634;5.562;2022-11-27T01:52:51;102369.03;;;3.67;100.00
59513;BME280;45330;51.634;5.562;2022-11-27T01:55:31;102371.47;;;3.64;100.00
59513;BME280;45330;51.634;5.562;2022-11-27T01:58:06;102365.72;;;3.69;100.00
59513;BME280;45330;51.634;5.562;2022-11-27T02:00:33;102360.56;;;3.69;100.00
59513;BME280;45330;51.634;5.562;2022-11-27T02:02:59;102357.34;;;3.73;100.00
59513;BME280;45330;51.634;5.562;2022-11-27T02:05:26;102345.41;;;3.75;100.00
59513;BME280;45330;51.634;5.562;2022-11-27T02:07:53;102319.31;;;3.68;100.00
59513;BME280;45330;51.634;5.562;2022-11-27T02:10:22;102324.66;;;3.72;100.00
59513;BME280;45330;51.634;5.562;2022-11-27T02:12:55;102328.06;;;3.71;100.00
59513;BME280;45330;51.634;5.562;2022-11-27T02:16:02;102285.88;;;3.50;100.00
59513;BME280;45330;51.634;5.562;2022-11-27T02:18:49;102270.66;;;3.54;100.00
59513;BME280;45330;51.634;5.562;2022-11-27T02:21:19;102298.22;;;3.57;100.00
59513;BME280;45330;51.634;5.562;2022-11-27T02:29:53;102223.25;;;2.94;100.00
59513;BME280;45330;51.634;5.562;2022-11-27T02:32:43;102288.34;;;3.29;100.00
59513;BME280;45330;51.634;5.562;2022-11-27T02:35:21;102284.59;;;3.22;100.00
59513;BME280;45330;51.634;5.562;2022-11-27T02:43:06;102264.19;;;3.07;100.00
59513;BME280;45330;51.634;5.562;2022-11-27T02:45:38;102265.50;;;2.99;100.00
59513;BME280;45330;51.634;5.562;2022-11-27T02:48:07;102289.25;;;3.11;100.00
59513;BME280;45330;51.634;5.562;2022-11-27T02:50:35;102291.81;;;3.11;100.00
59513;BME280;45330;51.634;5.562;2022-11-27T02:53:05;102284.09;;;3.11;100.00
59513;BME280;45330;51.634;5.562;2022-11-27T02:55:33;102276.66;;;3.17;100.00
59513;BME280;45330;51.634;5.562;2022-11-27T02:58:04;102276.53;;;3.14;100.00
59513;BME280;45330;51.634;5.562;2022-11-27T03:00:34;102277.53;;;3.18;100.00
59513;BME280;45330;51.634;5.562;2022-11-27T03:03:03;102275.13;;;3.21;100.00
59513;BME280;45330;51.634;5.562;2022-11-27T03:05:34;102274.16;;;3.19;100.00
59513;BME280;45330;51.634;5.562;2022-11-27T03:11:12;102291.44;;;3.39;100.00
59513;BME280;45330;51.634;5.562;2022-11-27T03:13:42;102264.44;;;3.31;100.00
59513;BME280;45330;51.634;5.562;2022-11-27T03:19:28;102277.44;;;3.52;100.00
59513;BME280;45330;51.634;5.562;2022-11-27T03:21:57;102268.06;;;3.54;100.00
59513;BME280;45330;51.634;5.562;2022-11-27T03:24:24;102259.69;;;3.58;100.00
59513;BME280;45330;51.634;5.562;2022-11-27T03:26:50;102265.13;;;3.65;100.00
59513;BME280;45330;51.634;5.562;2022-11-27T03:29:22;102235.72;;;3.59;100.00
59513;BME280;45330;51.634;5.562;2022-11-27T03:31:50;102252.44;;;3.69;100.00
59513;BME280;45330;51.634;5.562;2022-11-27T03:34:15;102263.84;;;3.74;100.00
59513;BME280;45330;51.634;5.562;2022-11-27T03:36:41;102242.69;;;3.62;100.00
59513;BME280;45330;51.634;5.562;2022-11-27T03:39:07;102250.75;;;3.70;100.00
59513;BME280;45330;51.634;5.562;2022-11-27T03:50:11;102242.72;;;3.82;100.00
59513;BME280;45330;51.634;5.562;2022-11-27T03:52:59;102228.75;;;3.76;100.00
59513;BME280;45330;51.634;5.562;2022-11-27T03:58:28;102235.47;;;3.92;100.00
59513;BME280;45330;51.634;5.562;2022-11-27T04:00:58;102213.16;;;3.73;100.00
59513;BME280;45330;51.634;5.562;2022-11-27T04:03:26;102215.94;;;3.78;100.00
59513;BME280;45330;51.634;5.562;2022-11-27T04:05:52;102210.53;;;3.72;100.00
59513;BME280;45330;51.634;5.562;2022-11-27T04:08:17;102240.63;;;3.92;100.00
59513;BME280;45330;51.634;5.562;2022-11-27T04:10:43;102211.69;;;3.78;100.00
59513;BME280;45330;51.634;5.562;2022-11-27T04:13:08;102206.19;;;3.71;100.00
59513;BME280;45330;51.634;5.562;2022-11-27T04:15:34;102230.75;;;3.84;100.00
59513;BME280;45330;51.634;5.562;2022-11-27T04:17:59;102231.66;;;3.84;100.00
59513;BME280;45330;51.634;5.562;2022-11-27T04:20:25;102247.19;;;3.86;100.00
59513;BME280;45330;51.634;5.562;2022-11-27T04:22:50;102233.41;;;3.85;100.00
59513;BME280;45330;51.634;5.562;2022-11-27T04:25:16;102256.75;;;3.88;100.00
59513;BME280;45330;51.634;5.562;2022-11-27T04:27:41;102254.91;;;3.86;100.00
59513;BME280;45330;51.634;5.562;2022-11-27T04:30:07;102247.19;;;3.86;100.00
59513;BME280;45330;51.634;5.562;2022-11-27T04:32:33;102246.94;;;3.81;100.00
59513;BME280;45330;51.634;5.562;2022-11-27T04:34:58;102251.38;;;3.84;100.00
59513;BME280;45330;51.634;5.562;2022-11-27T04:37:23;102248.13;;;3.88;100.00
59513;BME280;45330;51.634;5.562;2022-11-27T04:39:49;102214.19;;;3.77;100.00
59513;BME280;45330;51.634;5.562;2022-11-27T04:42:15;102186.88;;;3.61;100.00
59513;BME280;45330;51.634;5.562;2022-11-27T04:44:40;102244.88;;;3.92;100.00
59513;BME280;45330;51.634;5.562;2022-11-27T04:47:06;102225.56;;;3.82;100.00
59513;BME280;45330;51.634;5.562;2022-11-27T04:49:31;102247.19;;;3.86;100.00
59513;BME280;45330;51.634;5.562;2022-11-27T04:51:56;102242.22;;;3.90;100.00
59513;BME280;45330;51.634;5.562;2022-11-27T04:54:22;102206.31;;;3.74;100.00
59513;BME280;45330;51.634;5.562;2022-11-27T04:56:47;102203.00;;;3.76;100.00
59513;BME280;45330;51.634;5.562;2022-11-27T04:59:13;102196.50;;;3.85;100.00
59513;BME280;45330;51.634;5.562;2022-11-27T05:01:38;102208.75;;;3.90;100.00
59513;BME280;45330;51.634;5.562;2022-11-27T05:04:03;102198.13;;;3.83;100.00
59513;BME280;45330;51.634;5.562;2022-11-27T05:06:29;102169.41;;;3.73;100.00
59513;BME280;45330;51.634;5.562;2022-11-27T05:08:54;102201.69;;;3.86;100.00
59513;BME280;45330;51.634;5.562;2022-11-27T05:11:24;102199.75;;;3.81;100.00
59513;BME280;45330;51.634;5.562;2022-11-27T05:13:49;102196.22;;;3.78;100.00
59513;BME280;45330;51.634;5.562;2022-11-27T05:16:35;102185.16;;;3.81;100.00
59513;BME280;45330;51.634;5.562;2022-11-27T05:19:00;102190.47;;;3.84;100.00
59513;BME280;45330;51.634;5.562;2022-11-27T05:21:25;102184.47;;;3.85;100.00
59513;BME280;45330;51.634;5.562;2022-11-27T05:23:51;102192.50;;;3.91;100.00
59513;BME280;45330;51.634;5.562;2022-11-27T05:26:16;102187.28;;;3.90;100.00
59513;BME280;45330;51.634;5.562;2022-11-27T05:28:41;102177.72;;;3.87;100.00
59513;BME280;45330;51.634;5.562;2022-11-27T05:31:07;102186.59;;;3.94;100.00
59513;BME280;45330;51.634;5.562;2022-11-27T05:33:32;102167.66;;;3.93;100.00
59513;BME280;45330;51.634;5.562;2022-11-27T05:35:58;102173.78;;;3.95;100.00
59513;BME280;45330;51.634;5.562;2022-11-27T05:38:23;102151.28;;;3.91;100.00
59513;BME280;45330;51.634;5.562;2022-11-27T05:40:48;102161.97;;;4.01;100.00
59513;BME280;45330;51.634;5.562;2022-11-27T05:43:14;102165.56;;;4.04;100.00
59513;BME280;45330;51.634;5.562;2022-11-27T05:45:39;102162.97;;;4.04;100.00
59513;BME280;45330;51.634;5.562;2022-11-27T05:48:04;102135.97;;;3.94;100.00
59513;BME280;45330;51.634;5.562;2022-11-27T05:50:30;102134.19;;;3.93;100.00
59513;BME280;45330;51.634;5.562;2022-11-27T05:52:55;102116.72;;;3.86;100.00
59513;BME280;45330;51.634;5.562;2022-11-27T05:55:20;102148.56;;;4.08;100.00
59513;BME280;45330;51.634;5.562;2022-11-27T05:57:46;102151.44;;;4.16;100.00
59513;BME280;45330;51.634;5.562;2022-11-27T06:00:11;102133.00;;;4.06;100.00
59513;BME280;45330;51.634;5.562;2022-11-27T06:02:38;102122.63;;;4.05;100.00
59513;BME280;45330;51.634;5.562;2022-11-27T06:05:03;102123.59;;;4.07;100.00
59513;BME280;45330;51.634;5.562;2022-11-27T06:07:30;102137.75;;;4.17;100.00
59513;BME280;45330;51.634;5.562;2022-11-27T06:09:55;102134.59;;;4.24;100.00
59513;BME280;45330;51.634;5.562;2022-11-27T06:12:20;102140.59;;;4.24;100.00
59513;BME280;45330;51.634;5.562;2022-11-27T06:14:46;102126.59;;;4.18;100.00
59513;BME280;45330;51.634;5.562;2022-11-27T06:17:11;102121.66;;;4.22;100.00
59513;BME280;45330;51.634;5.562;2022-11-27T06:19:39;102100.72;;;4.15;100.00
59513;BME280;45330;51.634;5.562;2022-11-27T06:22:05;102129.56;;;4.27;100.00
59513;BME280;45330;51.634;5.562;2022-11-27T06:24:30;102127.31;;;4.35;100.00
59513;BME280;45330;51.634;5.562;2022-11-27T06:26:57;102131.66;;;4.37;100.00
59513;BME280;45330;51.634;5.562;2022-11-27T06:29:22;102133.44;;;4.38;100.00
59513;BME280;45330;51.634;5.562;2022-11-27T06:31:47;102123.19;;;4.40;100.00
59513;BME280;45330;51.634;5.562;2022-11-27T06:34:13;102118.88;;;4.39;100.00
59513;BME280;45330;51.634;5.562;2022-11-27T06:36:38;102122.31;;;4.39;100.00
59513;BME280;45330;51.634;5.562;2022-11-27T06:39:09;102111.16;;;4.39;100.00
59513;BME280;45330;51.634;5.562;2022-11-27T06:41:35;102123.31;;;4.43;100.00
59513;BME280;45330;51.634;5.562;2022-11-27T06:44:01;102128.59;;;4.46;100.00
59513;BME280;45330;51.634;5.562;2022-11-27T06:46:27;102096.13;;;4.28;100.00
59513;BME280;45330;51.634;5.562;2022-11-27T06:48:53;102099.66;;;4.31;100.00
59513;BME280;45330;51.634;5.562;2022-11-27T06:51:27;102106.75;;;4.36;100.00
59513;BME280;45330;51.634;5.562;2022-11-27T06:53:53;102126.16;;;4.49;100.00
59513;BME280;45330;51.634;5.562;2022-11-27T06:56:21;102125.13;;;4.45;100.00
59513;BME280;45330;51.634;5.562;2022-11-27T06:58:50;102090.97;;;4.28;100.00
59513;BME280;45330;51.634;5.562;2022-11-27T07:01:16;102116.47;;;4.43;100.00
59513;BME280;45330;51.634;5.562;2022-11-27T07:03:42;102116.31;;;4.39;100.00
59513;BME280;45330;51.634;5.562;2022-11-27T07:06:10;102108.41;;;4.36;100.00
59513;BME280;45330;51.634;5.562;2022-11-27T07:08:36;102111.84;;;4.35;100.00
59513;BME280;45330;51.634;5.562;2022-11-27T07:11:12;102112.47;;;4.29;100.00
59513;BME280;45330;51.634;5.562;2022-11-27T07:13:38;102101.91;;;4.23;100.00
59513;BME280;45330;51.634;5.562;2022-11-27T07:16:06;102072.25;;;4.11;100.00
59513;BME280;45330;51.634;5.562;2022-11-27T07:18:37;102098.63;;;4.27;100.00
59513;BME280;45330;51.634;5.562;2022-11-27T07:21:02;102085.69;;;4.25;100.00
59513;BME280;45330;51.634;5.562;2022-11-27T07:23:28;102082.09;;;4.22;100.00
59513;BME280;45330;51.634;5.562;2022-11-27T07:25:53;102078.66;;;4.21;100.00
59513;BME280;45330;51.634;5.562;2022-11-27T07:28:19;102075.97;;;4.18;100.00
59513;BME280;45330;51.634;5.562;2022-11-27T07:30:45;102081.13;;;4.18;100.00
59513;BME280;45330;51.634;5.562;2022-11-27T07:33:10;102077.72;;;4.19;100.00
59513;BME280;45330;51.634;5.562;2022-11-27T07:35:35;102063.53;;;4.08;100.00
59513;BME280;45330;51.634;5.562;2022-11-27T07:38:01;102067.22;;;4.15;100.00
59513;BME280;45330;51.634;5.562;2022-11-27T07:40:26;102066.34;;;4.14;100.00
59513;BME280;45330;51.634;5.562;2022-11-27T07:42:51;102037.41;;;3.99;100.00
59513;BME280;45330;51.634;5.562;2022-11-27T07:45:17;102048.84;;;4.05;100.00
59513;BME280;45330;51.634;5.562;2022-11-27T07:47:42;102056.63;;;4.07;100.00
59513;BME280;45330;51.634;5.562;2022-11-27T07:50:08;102053.94;;;4.04;100.00
59513;BME280;45330;51.634;5.562;2022-11-27T07:52:35;102058.44;;;4.09;100.00
59513;BME280;45330;51.634;5.562;2022-11-27T07:55:00;102048.09;;;4.08;100.00
59513;BME280;45330;51.634;5.562;2022-11-27T07:57:26;102036.81;;;4.06;100.00
59513;BME280;45330;51.634;5.562;2022-11-27T07:59:52;102043.97;;;4.13;100.00
59513;BME280;45330;51.634;5.562;2022-11-27T08:02:17;102036.94;;;4.09;100.00
59513;BME280;45330;51.634;5.562;2022-11-27T08:04:43;102005.69;;;4.00;100.00
59513;BME280;45330;51.634;5.562;2022-11-27T08:07:08;102019.88;;;4.11;100.00
59513;BME280;45330;51.634;5.562;2022-11-27T08:09:34;102010.25;;;4.07;100.00
59513;BME280;45330;51.634;5.562;2022-11-27T08:11:59;101998.78;;;3.99;100.00
59513;BME280;45330;51.634;5.562;2022-11-27T08:14:24;101992.88;;;4.01;100.00
59513;BME280;45330;51.634;5.562;2022-11-27T08:16:50;102014.06;;;4.17;100.00
59513;BME280;45330;51.634;5.562;2022-11-27T08:19:15;101981.66;;;4.01;100.00
59513;BME280;45330;51.634;5.562;2022-11-27T08:21:40;102015.75;;;4.16;100.00
59513;BME280;45330;51.634;5.562;2022-11-27T08:24:06;101983.38;;;4.00;100.00
59513;BME280;45330;51.634;5.562;2022-11-27T08:26:32;102011.44;;;4.15;100.00
59513;BME280;45330;51.634;5.562;2022-11-27T08:28:57;101996.75;;;4.12;100.00
59513;BME280;45330;51.634;5.562;2022-11-27T08:31:23;101977.59;;;4.06;100.00
59513;BME280;45330;51.634;5.562;2022-11-27T08:33:48;101989.13;;;4.16;100.00
59513;BME280;45330;51.634;5.562;2022-11-27T08:36:14;102005.13;;;4.29;100.00
59513;BME280;45330;51.634;5.562;2022-11-27T08:38:39;102008.50;;;4.28;100.00
59513;BME280;45330;51.634;5.562;2022-11-27T08:41:06;102004.47;;;4.35;100.00
59513;BME280;45330;51.634;5.562;2022-11-27T08:43:33;101975.59;;;4.21;100.00
59513;BME280;45330;51.634;5.562;2022-11-27T08:45:58;101988.50;;;4.21;100.00
59513;BME280;45330;51.634;5.562;2022-11-27T08:48:27;101998.69;;;4.41;100.00
59513;BME280;45330;51.634;5.562;2022-11-27T08:50:52;102001.16;;;4.38;100.00
59513;BME280;45330;51.634;5.562;2022-11-27T08:53:18;101999.53;;;4.41;100.00
59513;BME280;45330;51.634;5.562;2022-11-27T08:55:44;101980.97;;;4.27;100.00
59513;BME280;45330;51.634;5.562;2022-11-27T08:58:10;102003.94;;;4.44;100.00
59513;BME280;45330;51.634;5.562;2022-11-27T09:00:36;101981.22;;;4.34;100.00
59513;BME280;45330;51.634;5.562;2022-11-27T09:03:02;101990.25;;;4.45;100.00
59513;BME280;45330;51.634;5.562;2022-11-27T09:05:28;102014.72;;;4.56;100.00
59513;BME280;45330;51.634;5.562;2022-11-27T09:07:54;101989.44;;;4.46;100.00
59513;BME280;45330;51.634;5.562;2022-11-27T09:10:20;101991.16;;;4.47;100.00
59513;BME280;45330;51.634;5.562;2022-11-27T09:12:47;101989.59;;;4.51;100.00
59513;BME280;45330;51.634;5.562;2022-11-27T09:15:13;101973.00;;;4.44;100.00
59513;BME280;45330;51.634;5.562;2022-11-27T09:17:38;102004.75;;;4.66;100.00
59513;BME280;45330;51.634;5.562;2022-11-27T09:20:05;101987.47;;;4.63;100.00
59513;BME280;45330;51.634;5.562;2022-11-27T09:22:35;101984.78;;;4.60;100.00
59513;BME280;45330;51.634;5.562;2022-11-27T09:25:01;101991.94;;;4.67;100.00
59513;BME280;45330;51.634;5.562;2022-11-27T09:27:26;102007.91;;;4.81;100.00
59513;BME280;45330;51.634;5.562;2022-11-27T09:29:52;101999.16;;;4.77;100.00
59513;BME280;45330;51.634;5.562;2022-11-27T09:32:17;102007.16;;;4.85;100.00
59513;BME280;45330;51.634;5.562;2022-11-27T09:34:43;102013.38;;;4.90;100.00
59513;BME280;45330;51.634;5.562;2022-11-27T09:37:08;102018.59;;;4.92;100.00
59513;BME280;45330;51.634;5.562;2022-11-27T09:39:34;102005.53;;;4.87;100.00
59513;BME280;45330;51.634;5.562;2022-11-27T09:42:04;102013.47;;;4.93;100.00
59513;BME280;45330;51.634;5.562;2022-11-27T09:44:41;102010.19;;;4.97;100.00
59513;BME280;45330;51.634;5.562;2022-11-27T09:49:46;101984.09;;;4.88;100.00
59513;BME280;45330;51.634;5.562;2022-11-27T09:52:26;101998.34;;;5.03;100.00
59513;BME280;45330;51.634;5.562;2022-11-27T09:57:25;101997.94;;;5.16;100.00
59513;BME280;45330;51.634;5.562;2022-11-27T09:59:52;101997.72;;;5.10;100.00
59513;BME280;45330;51.634;5.562;2022-11-27T10:02:27;101983.00;;;5.07;100.00
59513;BME280;45330;51.634;5.562;2022-11-27T10:04:54;101989.28;;;5.14;100.00
59513;BME280;45330;51.634;5.562;2022-11-27T10:07:40;101981.69;;;5.19;100.00
59513;BME280;45330;51.634;5.562;2022-11-27T10:13:42;101968.63;;;5.14;100.00
59513;BME280;45330;51.634;5.562;2022-11-27T10:16:20;101960.28;;;5.21;100.00
59513;BME280;45330;51.634;5.562;2022-11-27T10:18:53;101957.66;;;5.20;100.00
59513;BME280;45330;51.634;5.562;2022-11-27T10:21:44;101958.56;;;5.22;100.00
59513;BME280;45330;51.634;5.562;2022-11-27T10:24:15;101952.53;;;5.21;100.00
59513;BME280;45330;51.634;5.562;2022-11-27T10:26:48;101928.94;;;5.10;100.00
59513;BME280;45330;51.634;5.562;2022-11-27T10:29:50;101923.84;;;5.12;100.00
59513;BME280;45330;51.634;5.562;2022-11-27T10:32:27;101943.34;;;5.29;100.00
59513;BME280;45330;51.634;5.562;2022-11-27T10:34:57;101911.16;;;5.18;100.00
59513;BME280;45330;51.634;5.562;2022-11-27T10:37:27;101939.31;;;5.38;100.00
59513;BME280;45330;51.634;5.562;2022-11-27T10:40:06;101934.97;;;5.37;100.00
59513;BME280;45330;51.634;5.562;2022-11-27T10:42:37;101904.53;;;5.26;100.00
59513;BME280;45330;51.634;5.562;2022-11-27T10:45:09;101923.69;;;5.33;100.00
59513;BME280;45330;51.634;5.562;2022-11-27T10:47:42;101909.81;;;5.29;100.00
59513;BME280;45330;51.634;5.562;2022-11-27T10:50:18;101898.56;;;5.27;100.00
59513;BME280;45330;51.634;5.562;2022-11-27T10:52:56;101922.16;;;5.40;100.00
59513;BME280;45330;51.634;5.562;2022-11-27T10:58:14;101888.16;;;5.26;100.00
59513;BME280;45330;51.634;5.562;2022-11-27T11:00:41;101898.94;;;5.40;100.00
59513;BME280;45330;51.634;5.562;2022-11-27T11:03:15;101889.47;;;5.39;100.00
59513;BME280;45330;51.634;5.562;2022-11-27T11:05:41;101900.69;;;5.41;100.00
59513;BME280;45330;51.634;5.562;2022-11-27T11:08:18;101863.16;;;5.23;100.00
59513;BME280;45330;51.634;5.562;2022-11-27T11:13:28;101888.69;;;5.43;100.00
59513;BME280;45330;51.634;5.562;2022-11-27T11:16:03;101857.28;;;5.27;100.00
59513;BME280;45330;51.634;5.562;2022-11-27T11:18:32;101880.19;;;5.45;100.00
59513;BME280;45330;51.634;5.562;2022-11-27T11:21:00;101855.78;;;5.36;100.00
59513;BME280;45330;51.634;5.562;2022-11-27T11:23:38;101861.22;;;5.43;100.00
59513;BME280;45330;51.634;5.562;2022-11-27T11:28:50;101854.28;;;5.42;100.00
59513;BME280;45330;51.634;5.562;2022-11-27T11:31:17;101852.94;;;5.55;100.00
59513;BME280;45330;51.634;5.562;2022-11-27T11:33:49;101836.34;;;5.47;100.00
59513;BME280;45330;51.634;5.562;2022-11-27T11:36:15;101847.88;;;5.58;100.00
59513;BME280;45330;51.634;5.562;2022-11-27T11:38:43;101845.28;;;5.58;100.00
59513;BME280;45330;51.634;5.562;2022-11-27T11:41:10;101834.06;;;5.56;100.00
59513;BME280;45330;51.634;5.562;2022-11-27T11:43:38;101814.63;;;5.39;100.00
59513;BME280;45330;51.634;5.562;2022-11-27T11:46:25;101834.22;;;5.62;100.00
59513;BME280;45330;51.634;5.562;2022-11-27T11:49:06;;;;5.54;
59513;BME280;45330;51.634;5.562;2022-11-27T12:00:06;101804.19;;;5.64;100.00
59513;BME280;45330;51.634;5.562;2022-11-27T12:05:35;101787.19;;;5.71;100.00
59513;BME280;45330;51.634;5.562;2022-11-27T12:11:08;101768.97;;;5.68;100.00
59513;BME280;45330;51.634;5.562;2022-11-27T12:20:11;101762.22;;;5.72;100.00
59513;BME280;45330;51.634;5.562;2022-11-27T12:25:40;101740.81;;;5.76;100.00
59513;BME280;45330;51.634;5.562;2022-11-27T12:33:54;101743.47;;;5.79;100.00
59513;BME280;45330;51.634;5.562;2022-11-27T12:36:37;101734.72;;;5.74;100.00
59513;BME280;45330;51.634;5.562;2022-11-27T12:44:36;101729.16;;;5.90;100.00
59513;BME280;45330;51.634;5.562;2022-11-27T12:49:53;101667.16;;;5.58;100.00
59513;BME280;45330;51.634;5.562;2022-11-27T12:52:24;101692.28;;;5.64;100.00
59513;BME280;45330;51.634;5.562;2022-11-27T12:55:01;101702.84;;;5.73;100.00
59513;BME280;45330;51.634;5.562;2022-11-27T12:57:39;101702.06;;;5.76;100.00
59513;BME280;45330;51.634;5.562;2022-11-27T13:00:18;101670.06;;;5.71;100.00
59513;BME280;45330;51.634;5.562;2022-11-27T13:05:27;101680.25;;;5.64;100.00
59513;BME280;45330;51.634;5.562;2022-11-27T13:10:37;101705.38;;;5.70;100.00
59513;BME280;45330;51.634;5.562;2022-11-27T13:13:14;101672.38;;;5.60;100.00
59513;BME280;45330;51.634;5.562;2022-11-27T13:15:46;101676.59;;;5.58;100.00
59513;BME280;45330;51.634;5.562;2022-11-27T13:20:39;101663.19;;;5.70;100.00
59513;BME280;45330;51.634;5.562;2022-11-27T13:23:05;101662.31;;;5.71;100.00
59513;BME280;45330;51.634;5.562;2022-11-27T13:25:33;101653.81;;;5.75;100.00
59513;BME280;45330;51.634;5.562;2022-11-27T13:28:03;101647.72;;;5.71;100.00
59513;BME280;45330;51.634;5.562;2022-11-27T13:30:33;101648.66;;;5.75;100.00
59513;BME280;45330;51.634;5.562;2022-11-27T13:33:00;101655.66;;;5.79;100.00
59513;BME280;45330;51.634;5.562;2022-11-27T13:40:41;101643.34;;;5.69;100.00
59513;BME280;45330;51.634;5.562;2022-11-27T13:43:26;101656.53;;;5.79;100.00
59513;BME280;45330;51.634;5.562;2022-11-27T13:46:04;101659.03;;;5.76;100.00
59513;BME280;45330;51.634;5.562;2022-11-27T13:48:33;101641.50;;;5.64;100.00
59513;BME280;45330;51.634;5.562;2022-11-27T13:51:00;101661.56;;;5.75;100.00
59513;BME280;45330;51.634;5.562;2022-11-27T13:53:32;101653.81;;;5.75;100.00
59513;BME280;45330;51.634;5.562;2022-11-27T13:55:58;101633.88;;;5.69;100.00
59513;BME280;45330;51.634;5.562;2022-11-27T13:58:33;101660.06;;;5.83;100.00
59513;BME280;45330;51.634;5.562;2022-11-27T14:03:38;101607.84;;;5.60;100.00
59513;BME280;45330;51.634;5.562;2022-11-27T14:06:14;101631.53;;;5.77;100.00
59513;BME280;45330;51.634;5.562;2022-11-27T14:08:49;101623.78;;;5.77;100.00
59513;BME280;45330;51.634;5.562;2022-11-27T14:11:15;101628.19;;;5.81;100.00
59513;BME280;45330;51.634;5.562;2022-11-27T14:13:43;101601.06;;;5.65;100.00
59513;BME280;45330;51.634;5.562;2022-11-27T14:16:34;101617.84;;;5.81;100.00
59513;BME280;45330;51.634;5.562;2022-11-27T14:19:03;101605.44;;;5.67;100.00
59513;BME280;45330;51.634;5.562;2022-11-27T14:24:38;101587.94;;;5.56;100.00
59513;BME280;45330;51.634;5.562;2022-11-27T14:27:23;101607.28;;;5.72;100.00
59513;BME280;45330;51.634;5.562;2022-11-27T14:29:50;101593.47;;;5.70;100.00
59513;BME280;45330;51.634;5.562;2022-11-27T14:32:17;101596.03;;;5.70;100.00
59513;BME280;45330;51.634;5.562;2022-11-27T14:34:44;101584.72;;;5.64;100.00
59513;BME280;45330;51.634;5.562;2022-11-27T14:37:26;101570.00;;;5.62;100.00
59513;BME280;45330;51.634;5.562;2022-11-27T14:39:52;101514.81;;;5.23;100.00
59513;BME280;45330;51.634;5.562;2022-11-27T14:42:26;101546.47;;;5.51;100.00